Time;durP1;ratioP1;P1;durP2;ratioP2;P2;SDS_P1;SDS_P2;PMS_P1;PMS_P2;Temp;Humidity;BMP_temperature;BMP_pressure;BME280_temperature;BME280_humidity;BME280_pressure;Samples;Min_cycle;Max_cycle;Signal;HPM_P1;HPM_P2
2022/08/27 00:01:38;;;;;;;4.85;1.92;;;;;;;20.90;47.34;92189.22;5031017;28;20187;-74
2022/08/27 00:04:03;;;;;;;2.70;1.50;;;;;;;20.87;47.34;92181.16;5011512;28;20033;-74
2022/08/27 00:06:29;;;;;;;3.17;1.70;;;;;;;20.85;47.51;92186.88;4994005;28;20041;-74
2022/08/27 00:08:55;;;;;;;2.65;1.60;;;;;;;20.85;47.38;92176.22;4993725;28;20034;-74
2022/08/27 00:11:24;;;;;;;3.13;1.70;;;;;;;20.82;47.15;92171.59;5011095;28;20052;-74
2022/08/27 00:13:50;;;;;;;1.95;1.40;;;;;;;20.79;47.22;92169.66;4993628;28;20037;-74
2022/08/27 00:16:16;;;;;;;2.97;1.60;;;;;;;20.76;47.67;92173.03;5009676;28;20510;-74
2022/08/27 00:18:44;;;;;;;2.15;1.40;;;;;;;20.72;47.68;92178.31;4994123;28;20036;-74
2022/08/27 00:21:10;;;;;;;2.22;1.45;;;;;;;20.73;47.76;92179.81;5011199;28;20414;-74
2022/08/27 00:23:36;;;;;;;4.05;1.60;;;;;;;20.67;47.80;92175.94;4977332;28;20563;-74
2022/08/27 00:26:04;;;;;;;2.50;1.50;;;;;;;20.63;48.09;92182.34;5010981;28;20018;-76
2022/08/27 00:28:30;;;;;;;2.85;1.60;;;;;;;20.59;47.87;92182.28;4993670;28;20057;-73
2022/08/27 00:30:57;;;;;;;2.30;1.40;;;;;;;20.55;47.57;92190.16;4992829;28;20129;-74
2022/08/27 00:33:23;;;;;;;4.57;1.70;;;;;;;20.61;49.51;92176.59;4993785;28;20395;-74
2022/08/27 00:35:49;;;;;;;4.18;1.80;;;;;;;20.49;49.87;92180.16;4993681;28;20045;-74
2022/08/27 00:38:15;;;;;;;3.47;1.70;;;;;;;20.37;50.34;92176.56;5011087;28;20117;-74
2022/08/27 00:40:42;;;;;;;4.10;2.10;;;;;;;20.26;51.04;92178.25;4993320;28;20474;-74
2022/08/27 00:43:07;;;;;;;3.80;1.70;;;;;;;20.13;51.75;92185.66;5010733;28;20244;-74
2022/08/27 00:45:38;;;;;;;2.40;1.50;;;;;;;20.07;51.73;92179.09;5008845;28;20056;-74
2022/08/27 00:48:06;;;;;;;2.97;1.67;;;;;;;19.98;52.06;92180.44;4993669;28;20141;-74
2022/08/27 00:50:41;;;;;;;3.53;1.60;;;;;;;19.90;52.60;92176.84;5014100;28;20052;-74
2022/08/27 00:53:11;;;;;;;3.17;1.70;;;;;;;19.87;51.83;92178.34;5014649;28;20038;-74
2022/08/27 00:55:48;;;;;;;2.13;1.50;;;;;;;19.84;51.69;92175.63;5014556;28;20042;-74
2022/08/27 00:58:20;;;;;;;2.63;1.50;;;;;;;19.88;50.60;92184.41;4996946;28;20053;-74
2022/08/27 01:00:46;;;;;;;2.90;1.60;;;;;;;19.85;51.44;92180.56;5013372;28;20109;-74
2022/08/27 01:03:13;;;;;;;2.67;1.50;;;;;;;19.83;51.87;92192.66;5014293;28;20029;-74
2022/08/27 01:05:41;;;;;;;2.55;1.50;;;;;;;19.81;52.04;92184.28;4995973;28;20065;-74
2022/08/27 01:08:14;;;;;;;2.70;1.70;;;;;;;19.73;52.70;92189.47;5014251;28;20476;-74
2022/08/27 01:10:41;;;;;;;2.72;1.55;;;;;;;19.68;52.99;92192.38;5014484;28;20389;-76
2022/08/27 01:13:09;;;;;;;4.20;1.73;;;;;;;19.64;53.63;92193.41;4976445;28;20144;-76
2022/08/27 01:15:34;;;;;;;2.42;1.40;;;;;;;19.61;53.62;92191.44;4994621;28;20499;-74
2022/08/27 01:18:04;;;;;;;3.60;1.60;;;;;;;19.56;53.88;92185.28;4994511;28;20085;-74
2022/08/27 01:21:05;;;;;;;3.10;1.80;;;;;;;19.53;54.74;92191.31;4993072;28;20033;-75
2022/08/27 01:23:36;;;;;;;3.72;1.73;;;;;;;19.53;55.15;92187.88;4995311;28;20030;-74
2022/08/27 01:26:05;;;;;;;3.30;2.00;;;;;;;19.50;55.94;92188.59;4980302;28;20107;-76
2022/08/27 01:28:31;;;;;;;3.58;2.00;;;;;;;19.46;56.58;92185.09;4996531;28;20077;-74
2022/08/27 01:30:57;;;;;;;3.28;1.98;;;;;;;19.40;57.18;92181.94;5013781;28;20057;-76
2022/08/27 01:33:23;;;;;;;3.17;1.95;;;;;;;19.34;57.80;92183.31;4996301;28;20034;-76
2022/08/27 01:35:49;;;;;;;3.90;2.28;;;;;;;19.29;57.74;92189.66;4995313;28;20033;-76
2022/08/27 01:38:16;;;;;;;4.03;2.20;;;;;;;19.26;58.69;92187.72;5013728;28;20049;-76
2022/08/27 01:40:43;;;;;;;4.63;2.00;;;;;;;19.21;58.78;92185.34;5013391;28;20084;-76
2022/08/27 01:43:09;;;;;;;3.70;1.90;;;;;;;19.18;59.30;92190.56;4996186;28;20041;-76
2022/08/27 01:45:38;;;;;;;6.18;1.90;;;;;;;19.10;60.16;92195.72;4975274;28;20046;-74
2022/08/27 01:48:06;;;;;;;3.42;1.90;;;;;;;19.08;60.21;92197.19;4992821;28;20057;-76
2022/08/27 01:50:35;;;;;;;3.70;2.22;;;;;;;19.05;60.28;92206.59;5010967;28;20029;-76
2022/08/27 01:53:10;;;;;;;4.82;2.00;;;;;;;19.05;60.15;92203.16;5012154;28;20053;-75
2022/08/27 01:55:37;;;;;;;4.10;2.00;;;;;;;19.06;60.25;92204.72;5010847;28;20030;-76
2022/08/27 01:58:03;;;;;;;3.35;2.10;;;;;;;19.05;60.03;92208.47;5031630;28;20487;-75
2022/08/27 02:00:33;;;;;;;3.55;1.98;;;;;;;19.05;59.71;92203.16;4998614;28;20051;-76
2022/08/27 02:02:59;;;;;;;3.60;1.70;;;;;;;19.09;59.09;92198.69;5013371;28;20156;-75
2022/08/27 02:05:26;;;;;;;3.10;1.60;;;;;;;19.09;58.17;92204.00;4995944;28;20022;-75
2022/08/27 02:07:53;;;;;;;3.40;1.90;;;;;;;19.09;57.68;92207.44;5013218;28;20431;-76
2022/08/27 02:10:26;;;;;;;2.78;1.60;;;;;;;19.20;55.21;92201.59;5012005;28;20034;-76
2022/08/27 02:12:52;;;;;;;5.25;1.70;;;;;;;19.22;55.29;92207.31;4992116;28;20189;-76
2022/08/27 02:15:18;;;;;;;2.97;1.80;;;;;;;19.24;55.38;92205.09;4976218;28;20133;-76
2022/08/27 02:17:45;;;;;;;2.72;1.60;;;;;;;19.28;54.79;92205.94;4976098;28;20045;-76
2022/08/27 02:20:13;;;;;;;3.10;1.60;;;;;;;19.29;54.48;92208.25;4991768;28;20400;-74
2022/08/27 02:22:39;;;;;;;2.35;1.52;;;;;;;19.33;55.17;92203.78;4976133;28;20034;-74
2022/08/27 02:25:08;;;;;;;3.83;1.80;;;;;;;19.38;54.13;92202.75;4976122;28;20515;-75
2022/08/27 02:27:34;;;;;;;3.60;1.88;;;;;;;19.50;54.11;92207.19;4993301;28;20026;-75
2022/08/27 02:29:59;;;;;;;4.93;1.73;;;;;;;19.46;54.41;92206.31;4991922;28;20029;-75
2022/08/27 02:32:26;;;;;;;3.58;1.77;;;;;;;19.43;54.58;92207.00;4991105;28;20038;-75
2022/08/27 02:34:53;;;;;;;2.95;1.60;;;;;;;19.41;55.09;92211.88;4993410;28;20042;-75
2022/08/27 02:37:19;;;;;;;3.50;1.70;;;;;;;19.39;55.64;92211.50;4992897;28;20037;-75
2022/08/27 02:39:45;;;;;;;3.47;1.80;;;;;;;19.38;56.00;92207.28;4991344;28;20042;-75
2022/08/27 02:42:10;;;;;;;5.22;1.80;;;;;;;19.36;56.47;92207.63;4989897;28;20046;-75
2022/08/27 02:44:36;;;;;;;3.20;1.80;;;;;;;19.34;56.95;92208.00;4991612;28;20030;-75
2022/08/27 02:47:03;;;;;;;3.90;1.90;;;;;;;19.34;56.69;92210.63;4992421;28;20041;-75
2022/08/27 02:49:29;;;;;;;3.28;1.85;;;;;;;19.33;56.90;92205.66;4991594;28;20030;-75
2022/08/27 02:51:56;;;;;;;3.65;2.00;;;;;;;19.32;57.28;92204.91;4991867;28;20029;-75
2022/08/27 02:54:25;;;;;;;4.50;2.38;;;;;;;19.30;57.62;92207.13;4992705;28;20639;-75
2022/08/27 02:56:53;;;;;;;6.03;2.00;;;;;;;19.30;58.01;92207.13;4991331;28;20034;-75
2022/08/27 02:59:20;;;;;;;3.63;2.10;;;;;;;19.27;58.21;92205.19;4991504;28;20113;-75
2022/08/27 03:01:46;;;;;;;5.55;2.20;;;;;;;19.27;58.62;92204.41;4991801;28;20077;-75
2022/08/27 03:04:12;;;;;;;4.55;2.30;;;;;;;19.25;59.18;92202.09;4991072;28;20046;-75
2022/08/27 03:06:37;;;;;;;4.25;2.33;;;;;;;19.22;59.83;92197.47;4990848;28;20046;-75
2022/08/27 03:09:03;;;;;;;4.25;2.42;;;;;;;19.20;59.69;92194.41;4991550;28;20038;-75
2022/08/27 03:11:30;;;;;;;4.18;2.42;;;;;;;19.19;60.18;92195.53;4990573;28;20511;-75
2022/08/27 03:13:57;;;;;;;5.32;2.63;;;;;;;19.19;60.77;92189.47;4989773;28;20041;-75
2022/08/27 03:16:23;;;;;;;7.20;2.80;;;;;;;19.16;61.15;92182.94;4992485;28;20023;-75
2022/08/27 03:18:48;;;;;;;7.75;2.60;;;;;;;19.16;61.71;92182.16;4992294;28;20403;-75
2022/08/27 03:21:19;;;;;;;5.15;2.90;;;;;;;19.13;61.73;92178.34;4992227;28;20057;-75
2022/08/27 03:23:45;;;;;;;5.70;3.47;;;;;;;19.11;62.17;92178.66;4989739;28;20053;-75
2022/08/27 03:26:11;;;;;;;5.38;2.88;;;;;;;19.10;61.97;92174.50;4991021;28;20038;-75
2022/08/27 03:28:37;;;;;;;4.50;2.70;;;;;;;19.10;61.92;92168.44;4974743;28;20104;-75
2022/08/27 03:31:06;;;;;;;8.45;2.92;;;;;;;19.12;62.18;92166.97;4991120;28;20527;-75
2022/08/27 03:33:35;;;;;;;6.78;2.65;;;;;;;19.11;61.66;92165.41;4990905;28;20066;-75
2022/08/27 03:36:01;;;;;;;5.47;2.90;;;;;;;19.08;62.64;92168.00;4989965;28;20042;-75
2022/08/27 03:38:26;;;;;;;4.60;2.50;;;;;;;19.02;62.60;92162.19;4991432;28;20038;-75
2022/08/27 03:40:52;;;;;;;6.50;2.90;;;;;;;19.00;62.51;92168.94;4990863;28;20049;-75
2022/08/27 03:43:19;;;;;;;4.82;2.85;;;;;;;18.96;63.02;92162.78;4990875;28;20030;-75
2022/08/27 03:45:47;;;;;;;4.53;3.03;;;;;;;18.93;62.89;92166.91;4988487;28;20126;-75
2022/08/27 03:48:13;;;;;;;3.92;2.60;;;;;;;18.88;63.86;92173.25;4992025;28;20030;-75
2022/08/27 03:50:40;;;;;;;5.57;2.92;;;;;;;18.83;63.51;92178.06;4990588;28;20101;-75
2022/08/27 03:53:06;;;;;;;3.95;2.60;;;;;;;18.82;62.71;92171.19;4989625;28;20026;-75
2022/08/27 03:55:32;;;;;;;8.45;2.58;;;;;;;18.75;63.12;92171.78;4986149;28;20046;-75
2022/08/27 03:57:57;;;;;;;3.70;2.38;;;;;;;18.70;63.49;92180.00;4998892;28;20487;-75
2022/08/27 04:00:24;;;;;;;5.35;2.58;;;;;;;18.65;63.68;92180.28;5010335;28;20042;-75
2022/08/27 04:02:50;;;;;;;4.65;2.70;;;;;;;18.59;64.11;92179.75;5010147;28;20050;-75
2022/08/27 04:05:16;;;;;;;4.40;2.50;;;;;;;18.54;63.90;92177.34;5010362;28;20173;-75
2022/08/27 04:07:42;;;;;;;5.25;2.40;;;;;;;18.52;64.24;92179.59;4997707;28;20058;-75
2022/08/27 04:10:10;;;;;;;4.75;2.60;;;;;;;18.49;64.74;92182.94;4991852;28;20404;-75
2022/08/27 04:12:36;;;;;;;6.22;2.50;;;;;;;18.43;65.65;92184.28;4990321;28;20042;-75
2022/08/27 04:15:03;;;;;;;4.55;2.40;;;;;;;18.35;66.04;92180.69;4990860;28;20045;-75
2022/08/27 04:17:30;;;;;;;4.80;2.30;;;;;;;18.28;66.23;92181.28;4989645;28;20066;-75
2022/08/27 04:19:55;;;;;;;3.75;2.40;;;;;;;18.22;66.37;92176.59;4990044;28;20038;-75
2022/08/27 04:22:22;;;;;;;4.35;2.50;;;;;;;18.17;66.67;92179.47;4992535;28;20042;-75
2022/08/27 04:24:48;;;;;;;6.25;2.67;;;;;;;18.09;66.97;92187.25;4978223;28;20038;-75
2022/08/27 04:27:15;;;;;;;3.95;2.22;;;;;;;18.07;67.24;92184.16;4992609;28;20049;-75
2022/08/27 04:29:41;;;;;;;4.00;2.55;;;;;;;17.98;67.88;92183.53;4993398;28;20030;-75
2022/08/27 04:32:07;;;;;;;6.15;2.72;;;;;;;17.96;67.93;92187.66;4995247;28;20030;-75
2022/08/27 04:34:33;;;;;;;4.32;2.70;;;;;;;17.88;68.54;92181.41;4995410;28;20038;-75
2022/08/27 04:36:59;;;;;;;4.88;2.53;;;;;;;17.83;69.01;92182.41;4993016;28;20042;-75
2022/08/27 04:39:26;;;;;;;4.22;2.53;;;;;;;17.79;68.72;92180.75;4993026;28;20034;-75
2022/08/27 04:41:55;;;;;;;6.05;2.65;;;;;;;17.74;68.87;92191.56;4995348;28;20043;-75
2022/08/27 04:44:22;;;;;;;4.78;2.80;;;;;;;17.76;69.35;92189.34;4995420;28;20034;-75
2022/08/27 04:46:49;;;;;;;4.63;2.78;;;;;;;17.72;69.44;92188.47;4994938;28;20034;-75
2022/08/27 04:49:15;;;;;;;5.05;2.85;;;;;;;17.69;69.58;92189.94;4992961;28;20424;-75
2022/08/27 04:51:42;;;;;;;4.88;2.88;;;;;;;17.66;69.95;92186.09;4994024;28;20062;-75
2022/08/27 04:54:09;;;;;;;4.85;2.70;;;;;;;17.70;70.26;92186.19;4993821;28;20034;-75
2022/08/27 04:56:35;;;;;;;3.90;2.60;;;;;;;17.65;70.34;92179.25;4992568;28;20655;-75
2022/08/27 04:59:03;;;;;;;6.25;2.60;;;;;;;17.64;70.02;92180.34;4991391;28;20073;-75
2022/08/27 05:01:29;;;;;;;6.45;2.55;;;;;;;17.63;69.57;92175.38;4992799;28;20049;-75
2022/08/27 05:03:57;;;;;;;4.30;2.50;;;;;;;17.64;69.30;92184.88;4992104;28;20034;-75
2022/08/27 05:06:23;;;;;;;5.40;2.60;;;;;;;17.66;68.61;92180.78;4993706;28;20038;-75
2022/08/27 05:08:50;;;;;;;4.82;2.33;;;;;;;17.69;68.07;92184.63;4993598;28;20030;-75
2022/08/27 05:11:17;;;;;;;3.60;2.03;;;;;;;17.72;67.54;92183.97;4990146;28;20047;-75
2022/08/27 05:13:43;;;;;;;4.05;2.25;;;;;;;17.76;66.86;92186.69;4971359;28;20122;-75
2022/08/27 05:16:15;;;;;;;4.18;2.28;;;;;;;17.80;66.14;92184.94;4973383;28;20053;-75
2022/08/27 05:18:41;;;;;;;4.07;2.20;;;;;;;17.84;65.62;92191.88;4973951;28;20126;-75
2022/08/27 05:21:08;;;;;;;3.15;1.98;;;;;;;17.86;64.82;92178.31;4974564;28;20046;-76
2022/08/27 05:23:34;;;;;;;3.45;1.80;;;;;;;17.89;64.41;92175.75;4957603;28;20031;-76
2022/08/27 05:26:00;;;;;;;3.55;2.50;;;;;;;17.93;63.98;92170.56;4957953;28;20139;-75
2022/08/27 05:28:27;;;;;;;3.10;2.00;;;;;;;17.95;63.81;92175.53;4973713;28;20047;-75
2022/08/27 05:31:03;;;;;;;3.33;2.00;;;;;;;18.03;60.36;92172.69;4974850;28;20026;-75
2022/08/27 05:33:29;;;;;;;3.20;1.88;;;;;;;18.21;58.61;92173.16;4971540;28;20026;-75
2022/08/27 05:35:57;;;;;;;3.08;1.77;;;;;;;18.40;57.53;92171.72;4974357;28;20043;-75
2022/08/27 05:38:25;;;;;;;3.00;1.80;;;;;;;18.42;61.29;92183.53;4974836;28;20039;-75
2022/08/27 05:41:03;;;;;;;3.20;1.90;;;;;;;18.43;61.36;92178.97;4974028;28;20038;-75
2022/08/27 05:43:28;;;;;;;3.22;1.95;;;;;;;18.39;62.81;92178.13;4967116;28;20038;-76
2022/08/27 05:45:54;;;;;;;3.75;2.15;;;;;;;18.40;62.90;92175.13;4964850;28;20041;-76
2022/08/27 05:48:19;;;;;;;4.10;2.20;;;;;;;18.39;63.11;92184.19;4980793;28;20081;-77
2022/08/27 05:50:45;;;;;;;5.50;2.20;;;;;;;18.40;63.30;92175.13;4985699;28;20400;-77
2022/08/27 05:53:11;;;;;;;4.13;2.05;;;;;;;18.42;64.30;92177.47;4992235;28;20034;-76
2022/08/27 05:55:40;;;;;;;2.78;1.63;;;;;;;18.50;59.35;92174.63;4982734;28;20038;-77
2022/08/27 05:58:07;;;;;;;3.10;1.83;;;;;;;18.66;58.71;92176.50;4966861;28;20039;-77
2022/08/27 06:03:20;;;;;;;3.45;1.92;;;;;;;19.01;57.71;92178.47;4972626;28;20393;-76
2022/08/27 06:05:46;;;;;;;3.13;1.90;;;;;;;19.21;57.21;92187.22;4973614;28;20031;-77
2022/08/27 06:08:12;;;;;;;3.10;1.80;;;;;;;19.29;57.07;92180.94;4972111;28;20046;-77
2022/08/27 06:10:41;;;;;;;4.78;2.03;;;;;;;19.44;57.48;92185.44;4973909;28;20098;-77
2022/08/27 06:13:07;;;;;;;3.45;1.90;;;;;;;19.51;58.13;92188.22;5012615;28;20096;-76
2022/08/27 06:15:33;;;;;;;4.95;1.90;;;;;;;19.56;58.39;92187.19;4994264;28;20121;-77
2022/08/27 06:17:58;;;;;;;5.53;1.80;;;;;;;19.60;59.00;92190.69;4994291;28;20136;-77
2022/08/27 06:20:24;;;;;;;2.80;1.75;;;;;;;19.64;58.42;92191.53;4995251;28;20391;-77
2022/08/27 06:22:49;;;;;;;3.40;1.92;;;;;;;19.66;56.98;92197.25;4959476;28;20038;-77
2022/08/27 06:25:15;;;;;;;3.72;1.95;;;;;;;19.75;55.36;92202.38;4976364;28;20125;-77
2022/08/27 06:27:40;;;;;;;3.38;1.90;;;;;;;19.67;56.16;92196.13;5002696;28;20080;-77
2022/08/27 06:30:07;;;;;;;3.17;1.80;;;;;;;19.70;56.85;92198.13;5011700;28;20038;-77
2022/08/27 06:32:32;;;;;;;3.80;1.90;;;;;;;19.76;57.43;92199.38;4977201;28;20046;-76
2022/08/27 06:34:58;;;;;;;4.07;1.80;;;;;;;19.81;58.94;92194.91;4980007;28;20096;-77
2022/08/27 06:37:23;;;;;;;3.17;1.80;;;;;;;19.87;58.43;92198.81;5004522;28;20045;-77
2022/08/27 06:39:50;;;;;;;3.35;2.08;;;;;;;19.92;58.72;92195.88;4987488;28;20030;-77
2022/08/27 06:42:16;;;;;;;3.33;1.80;;;;;;;19.97;60.28;92198.22;5011752;28;20456;-77
2022/08/27 06:44:46;;;;;;;4.25;1.90;;;;;;;20.05;61.34;92205.22;4977007;28;20041;-76
2022/08/27 06:47:12;;;;;;;5.20;1.80;;;;;;;20.12;60.18;92205.34;5006435;28;20064;-77
2022/08/27 06:49:39;;;;;;;3.95;2.00;;;;;;;20.11;62.14;92219.78;4976429;28;20030;-77
2022/08/27 06:52:05;;;;;;;2.95;1.75;;;;;;;20.14;63.26;92215.63;4994222;28;20084;-77
2022/08/27 06:54:31;;;;;;;3.05;1.80;;;;;;;20.18;63.69;92219.91;4992834;28;20069;-77
2022/08/27 06:56:59;;;;;;;3.83;2.10;;;;;;;20.20;62.97;92216.09;5006713;28;20034;-78
2022/08/27 06:59:26;;;;;;;3.38;1.95;;;;;;;20.30;62.89;92215.53;4975561;28;20049;-78
2022/08/27 07:01:52;;;;;;;3.55;2.00;;;;;;;20.31;62.68;92212.53;5002821;28;20525;-77
2022/08/27 07:04:24;;;;;;;4.05;2.10;;;;;;;20.36;62.66;92219.47;4969832;28;20045;-76
2022/08/27 07:06:49;;;;;;;;;;;;;;;20.49;63.06;92218.16;4993862;28;20029;-76
2022/08/27 07:09:16;;;;;;;4.82;1.98;;;;;;;20.53;62.85;92215.56;4980279;28;19918;-76
2022/08/27 07:11:42;;;;;;;4.65;2.00;;;;;;;20.64;61.70;92215.78;5016981;28;20054;-76
2022/08/27 07:14:09;;;;;;;4.03;1.77;;;;;;;20.70;60.82;92217.03;4985031;28;20038;-76
2022/08/27 07:16:36;;;;;;;5.80;2.03;;;;;;;20.86;60.80;92216.88;4995606;28;20034;-77
2022/08/27 07:19:04;;;;;;;3.58;1.88;;;;;;;20.83;57.99;92214.91;5009463;28;20042;-76
2022/08/27 07:21:31;;;;;;;4.43;1.98;;;;;;;20.86;57.97;92219.56;4999490;28;20040;-77
2022/08/27 07:24:03;;;;;;;3.40;1.90;;;;;;;20.85;58.08;92221.44;5005189;28;20017;-77
2022/08/27 07:26:31;;;;;;;3.22;2.10;;;;;;;20.82;56.81;92216.06;4983095;28;20037;-76
2022/08/27 07:28:57;;;;;;;3.25;1.90;;;;;;;20.76;60.40;92221.69;4994002;28;20044;-77
2022/08/27 07:31:22;;;;;;;4.20;2.17;;;;;;;20.79;61.94;92220.97;4993929;28;20025;-77
2022/08/27 07:33:49;;;;;;;5.50;2.08;;;;;;;20.84;62.84;92224.44;5009566;28;20508;-76
2022/08/27 07:36:18;;;;;;;4.22;2.03;;;;;;;20.90;61.76;92231.03;4994287;28;20037;-77
2022/08/27 07:38:44;;;;;;;5.07;3.33;;;;;;;21.03;62.20;92234.25;4976723;28;20038;-76
2022/08/27 07:41:11;;;;;;;3.67;2.05;;;;;;;21.23;58.49;92227.69;4995882;28;20045;-76
2022/08/27 07:46:23;;;;;;;3.63;1.92;;;;;;;22.23;58.33;92226.34;5009220;28;20041;-77
2022/08/27 07:48:49;;;;;;;4.07;2.00;;;;;;;22.74;52.06;92224.16;5011621;28;20068;-76
2022/08/27 07:51:18;;;;;;;5.63;1.90;;;;;;;22.97;51.73;92224.75;4992901;28;20036;-77
2022/08/27 07:53:45;;;;;;;3.65;2.00;;;;;;;23.26;50.00;92230.34;5009372;28;20112;-76
2022/08/27 07:56:11;;;;;;;3.42;2.00;;;;;;;23.30;51.16;92233.78;5025687;28;20033;-76
2022/08/27 07:58:37;;;;;;;3.80;2.33;;;;;;;23.20;54.24;92239.81;4977297;28;20041;-77
2022/08/27 08:01:03;;;;;;;3.85;2.25;;;;;;;22.89;55.28;92235.72;4972258;28;20030;-77
2022/08/27 08:03:30;;;;;;;8.35;2.60;;;;;;;22.83;55.18;92243.28;4991659;28;20041;-76
2022/08/27 08:05:56;;;;;;;4.40;2.55;;;;;;;22.96;55.22;92241.88;4993521;28;20033;-76
2022/08/27 08:08:23;;;;;;;4.95;2.80;;;;;;;23.08;56.51;92248.91;4993713;28;20038;-76
2022/08/27 08:10:49;;;;;;;8.32;2.70;;;;;;;23.19;55.76;92251.63;5011243;28;20034;-76
2022/08/27 08:13:16;;;;;;;5.00;2.42;;;;;;;23.23;53.85;92247.84;5005839;28;20037;-76
2022/08/27 08:15:46;;;;;;;10.05;2.58;;;;;;;23.25;51.15;92256.25;5013149;28;20052;-77
2022/08/27 08:18:12;;;;;;;4.35;2.50;;;;;;;23.25;54.79;92258.91;5014807;28;20034;-77
2022/08/27 08:20:38;;;;;;;5.43;2.85;;;;;;;23.10;56.14;92261.84;5009897;28;20065;-77
2022/08/27 08:23:04;;;;;;;3.75;2.50;;;;;;;23.18;52.47;92268.78;5009076;28;20379;-77
2022/08/27 08:25:29;;;;;;;4.25;2.40;;;;;;;23.21;51.34;92273.38;5009977;28;20030;-77
2022/08/27 08:27:55;;;;;;;5.30;2.80;;;;;;;23.35;53.54;92276.19;4992014;28;20053;-77
2022/08/27 08:30:22;;;;;;;3.50;2.25;;;;;;;23.74;50.74;92272.22;4993601;28;20034;-77
2022/08/27 08:32:47;;;;;;;5.28;2.60;;;;;;;23.99;49.69;92269.69;4992878;28;20034;-77
2022/08/27 08:35:13;;;;;;;4.55;2.42;;;;;;;23.97;51.99;92269.31;4993735;28;20069;-77
2022/08/27 08:37:42;;;;;;;5.72;2.70;;;;;;;23.95;51.50;92272.34;5022062;28;20153;-77
2022/08/27 08:40:08;;;;;;;3.80;2.42;;;;;;;23.88;49.94;92275.75;4988435;28;20034;-77
2022/08/27 08:42:53;;;;;;;5.32;2.38;;;;;;;23.93;50.32;92273.88;4998464;28;20510;-77
2022/08/27 08:45:25;;;;;;;4.45;2.45;;;;;;;23.99;52.54;92273.13;5000576;28;20038;-77
2022/08/27 08:47:58;;;;;;;4.28;2.70;;;;;;;23.86;53.24;92274.59;5000747;28;20099;-77
2022/08/27 08:50:42;;;;;;;5.32;2.85;;;;;;;23.77;54.72;92276.84;5009918;28;20116;-76
2022/08/27 08:53:18;;;;;;;4.20;2.83;;;;;;;23.52;56.17;92276.66;5006666;28;20038;-80
2022/08/27 08:55:52;;;;;;;5.65;3.03;;;;;;;23.56;56.46;92277.47;5005619;28;20153;-77
2022/08/27 08:58:23;;;;;;;6.88;2.97;;;;;;;23.83;55.67;92280.69;5009979;28;20402;-77
2022/08/27 09:00:58;;;;;;;8.80;3.05;;;;;;;23.97;56.44;92282.66;5009036;28;20030;-77
2022/08/27 09:03:24;;;;;;;4.07;2.83;;;;;;;24.14;55.34;92283.88;4975819;28;20033;-77
2022/08/27 09:06:01;;;;;;;4.10;2.80;;;;;;;24.18;54.03;92285.44;5008902;28;20131;-77
2022/08/27 09:08:39;;;;;;;4.75;2.80;;;;;;;24.02;55.38;92284.97;4991897;28;20137;-77
2022/08/27 09:11:12;;;;;;;5.35;2.58;;;;;;;24.12;54.90;92289.63;5012023;28;20104;-77
2022/08/27 09:13:46;;;;;;;6.28;2.85;;;;;;;24.09;54.25;92282.34;4996311;28;20076;-77
2022/08/27 09:16:12;;;;;;;6.13;3.22;;;;;;;24.07;54.15;92279.28;4980718;28;20037;-75
2022/08/27 09:18:40;;;;;;;7.13;3.17;;;;;;;23.98;54.58;92292.22;5012628;28;20026;-76
2022/08/27 09:21:09;;;;;;;4.72;2.85;;;;;;;24.27;53.98;92293.09;5013924;28;20084;-75
2022/08/27 09:24:11;;;;;;;4.85;3.00;;;;;;;24.36;53.32;92290.09;4994090;28;20021;-75
2022/08/27 09:26:39;;;;;;;5.72;2.90;;;;;;;23.97;53.73;92296.81;4980166;28;20033;-76
2022/08/27 09:29:14;;;;;;;5.28;2.72;;;;;;;23.70;55.14;92309.59;4997593;28;20041;-75
2022/08/27 09:31:43;;;;;;;4.32;2.63;;;;;;;23.68;54.13;92309.19;4997198;28;20152;-76
2022/08/27 09:34:08;;;;;;;4.25;2.60;;;;;;;23.69;53.36;92300.06;4993408;28;20111;-76
2022/08/27 09:36:34;;;;;;;4.10;2.75;;;;;;;23.71;54.73;92300.47;5015538;28;20041;-75
2022/08/27 09:39:05;;;;;;;5.55;2.72;;;;;;;23.35;55.16;92304.75;5007679;28;20076;-75
2022/08/27 09:41:51;;;;;;;4.43;2.83;;;;;;;23.32;56.08;92308.19;5012047;28;20038;-75
2022/08/27 09:44:19;;;;;;;6.80;2.83;;;;;;;23.50;54.85;92301.06;4990081;28;20061;-74
2022/08/27 09:47:13;;;;;;;6.28;3.25;;;;;;;23.21;54.34;92308.84;5019643;28;20088;-74
2022/08/27 09:49:40;;;;;;;5.40;2.90;;;;;;;23.63;53.18;92306.88;5008729;28;20034;-75
2022/08/27 09:52:06;;;;;;;7.00;2.92;;;;;;;24.31;52.53;92300.00;5003113;28;20042;-74
2022/08/27 09:54:42;;;;;;;5.05;3.00;;;;;;;24.57;50.11;92295.56;4993756;28;20037;-74
2022/08/27 09:57:11;;;;;;;5.78;3.03;;;;;;;25.08;50.38;92291.81;5010991;28;20415;-77
2022/08/27 09:59:52;;;;;;;5.95;2.90;;;;;;;25.32;48.38;92292.22;5033275;28;20033;-72
2022/08/27 10:02:25;;;;;;;4.55;2.85;;;;;;;25.49;48.91;92294.16;5005004;28;20086;-74
2022/08/27 10:04:53;;;;;;;4.30;2.60;;;;;;;26.02;47.65;92303.28;5010753;28;20528;-73
2022/08/27 10:07:21;;;;;;;5.28;2.90;;;;;;;25.20;47.99;92292.63;5009986;28;20044;-74
2022/08/27 10:10:03;;;;;;;5.10;2.97;;;;;;;25.02;50.11;92288.00;5013330;28;20026;-75
2022/08/27 10:12:59;;;;;;;4.00;2.70;;;;;;;25.12;49.13;92289.91;4994943;28;20048;-76
2022/08/27 10:15:33;;;;;;;6.68;3.00;;;;;;;25.52;50.02;92282.66;5008527;28;20038;-76
2022/08/27 10:18:07;;;;;;;5.80;3.00;;;;;;;25.21;47.93;92283.44;4993208;28;20045;-76
2022/08/27 10:20:36;;;;;;;6.10;3.17;;;;;;;25.41;48.65;92283.81;4993899;28;20108;-76
2022/08/27 10:23:48;;;;;;;5.63;3.08;;;;;;;25.42;48.31;92290.69;4994432;28;20018;-76
2022/08/27 10:26:23;;;;;;;4.72;2.90;;;;;;;25.53;49.11;92286.09;4992584;28;20038;-76
2022/08/27 10:29:13;;;;;;;4.28;2.58;;;;;;;25.38;50.32;92295.31;5009713;28;20041;-74
2022/08/27 10:32:14;;;;;;;5.07;2.90;;;;;;;25.34;49.63;92292.63;5011461;28;20073;-73
2022/08/27 10:35:07;;;;;;;5.47;2.77;;;;;;;25.27;48.05;92287.28;5006820;28;20530;-74
2022/08/27 10:38:05;;;;;;;4.72;3.13;;;;;;;25.11;51.87;92290.28;4990041;28;20296;-74
2022/08/27 10:40:37;;;;;;;4.63;3.00;;;;;;;25.35;51.89;92294.13;5007677;28;20037;-73
2022/08/27 10:43:24;;;;;;;8.55;2.90;;;;;;;25.31;50.74;92296.06;5015771;28;20083;-72
2022/08/27 10:45:56;;;;;;;4.63;3.25;;;;;;;25.67;49.36;92296.03;5002388;28;20050;-74
2022/08/27 10:48:33;;;;;;;6.00;2.83;;;;;;;26.17;49.70;92290.59;5008630;28;20030;-73
2022/08/27 10:51:15;;;;;;;4.00;2.60;;;;;;;25.86;49.80;92292.19;5007432;28;20034;-75
2022/08/27 10:54:01;;;;;;;6.60;3.17;;;;;;;25.39;50.26;92289.53;5011862;28;20124;-72
2022/08/27 10:56:37;;;;;;;6.55;2.97;;;;;;;25.32;50.53;92286.88;5009125;28;20037;-71
2022/08/27 10:59:21;;;;;;;5.43;2.80;;;;;;;25.45;49.47;92279.97;4992713;28;20057;-74
2022/08/27 11:02:21;;;;;;;5.20;2.83;;;;;;;25.66;48.31;92275.75;5005956;28;20042;-73
2022/08/27 11:04:53;;;;;;;5.38;3.38;;;;;;;25.87;48.91;92275.75;4980071;28;20046;-75
2022/08/27 11:07:40;;;;;;;4.10;2.67;;;;;;;25.63;47.89;92266.56;5009972;28;20084;-75
2022/08/27 11:10:20;;;;;;;5.45;2.60;;;;;;;25.46;48.06;92270.03;4980862;28;20125;-71
2022/08/27 11:12:48;;;;;;;4.43;2.70;;;;;;;25.63;48.69;92265.81;5008197;28;20415;-72
2022/08/27 11:15:26;;;;;;;4.43;2.60;;;;;;;25.73;48.31;92262.31;5009298;28;20684;-73
2022/08/27 11:18:20;;;;;;;4.65;3.10;;;;;;;26.11;47.65;92254.59;4989507;28;20499;-74
2022/08/27 11:21:08;;;;;;;6.38;2.55;;;;;;;26.06;48.71;92250.41;5005338;28;20034;-72
2022/08/27 11:23:42;;;;;;;5.57;3.13;;;;;;;26.02;47.18;92248.88;5011199;28;20488;-74
2022/08/27 11:26:08;;;;;;;4.82;3.05;;;;;;;25.77;47.97;92260.41;5004306;28;20046;-73
2022/08/27 11:28:43;;;;;;;6.65;3.05;;;;;;;25.91;47.81;92244.31;5008498;28;20088;-73
2022/08/27 11:31:33;;;;;;;5.93;3.33;;;;;;;26.11;47.01;92258.03;5006833;28;20119;-73
2022/08/27 11:34:14;;;;;;;5.32;2.90;;;;;;;25.53;48.88;92251.25;4993606;28;20065;-72
2022/08/27 11:36:51;;;;;;;4.55;2.90;;;;;;;25.62;49.44;92254.31;4995798;28;20363;-73
2022/08/27 11:39:35;;;;;;;5.95;2.90;;;;;;;25.31;49.82;92253.22;5009682;28;20033;-73
2022/08/27 11:42:12;;;;;;;4.65;2.78;;;;;;;25.38;49.67;92257.81;4987583;28;20037;-73
2022/08/27 11:44:45;;;;;;;5.60;2.97;;;;;;;25.62;49.96;92248.19;5002454;28;20037;-73
2022/08/27 11:47:21;;;;;;;5.82;3.55;;;;;;;25.63;47.61;92253.16;4991543;28;20046;-73
2022/08/27 11:50:03;;;;;;;5.68;3.55;;;;;;;26.12;48.68;92246.16;4991428;28;20034;-74
2022/08/27 11:52:36;;;;;;;6.38;3.38;;;;;;;26.25;47.09;92257.22;5009751;28;20446;-75